Karel Barak

Scout - Sparta Prague
4 Dez 2028
Montag
Verarbeitung

Persönlichkeit

Anpassungsfähigkeit (6) Ehrgeiz (13) Kontroverse (12) Loyalität (3) Druck (5) Professionalität (1) Fairness (8) Temperament (12)

Profil

Trainerstil Demokratisch
Lizenz Kontinentale C
Entschlossenheit 12
Menschenführung 10
Motivation 9
Disziplin 8
Arbeitszufriedenheit
100%
Ermüdung
0%
Rolle Scout
Gehalt 96.2K p/W
Vertrag 14.03.2029

Leistung

Verhalten Gut
Trainingseffektivität
45%
Spielerentwicklung
65%
Verletzungsprävention
35%
Taktische Umsetzung
40%

Letzte Ereignisse

Nahm an einer Scouting-Besprechung teil jetzt
Empfahl ein Transferziel jetzt
Empfahl ein Transferziel jetzt
Spieler begutachtet jetzt
Spieler begutachtet jetzt
Spieler begutachtet jetzt
Spieler begutachtet jetzt
Spiel beobachtet jetzt

Aktuell beobachtet

87
Spieler Verein Status Fähigkeit Vertrauen Beobachtet Zuletzt beobachtet Letzte Stimme
Honest Ahanor Atalanta Aktiv 141 / 135 40% 3 03.12.2028 -
Matías Satas Grimsby Town Aktiv 109 / 112 40% 2 03.12.2028 -
Rafael Mota Sporting CP Aktiv 120 / 124 40% 1 03.12.2028 -
Giovanni Leoni Lincoln City Aktiv 150 / 143 40% 4 02.12.2028 -
Tyler Fletcher Rotherham United Aktiv 118 / 127 40% 1 02.12.2028 -
Salvador Blopá Wolverhampton Aktiv 129 / 118 40% 1 02.12.2028 -
Ryan McAidoo Oldham Athletic Aktiv 127 / 146 40% 3 01.12.2028 -
Mateus Mané Burnley Aktiv 144 / 145 40% 2 01.12.2028 -
Jacob Peter Hödl Sturm Graz Aktiv 132 / 129 40% 1 01.12.2028 -
Joel Ezra Enyimba Aktiv 100 / 106 40% 5 30.11.2028 -
Davinchi Getafe Aktiv 129 / 132 40% 2 30.11.2028 -
Louis Page Leicester City Aktiv 132 / 152 40% 1 30.11.2028 -
Peyton Miller New England Revolution Aktiv 110 / 123 40% 4 28.11.2028 -
Lisandro Piñero Banfield Aktiv 126 / 136 40% 6 28.11.2028 -
Mateo Aguiar Tigre Aktiv 118 / 109 40% 2 28.11.2028 -
Alex Verón Vélez Aktiv 113 / 120 40% 3 28.11.2028 -
Martim Cunha Porto Aktiv 111 / 125 40% 1 28.11.2028 -
Chris Rigg West Ham United Aktiv 139 / 152 40% 4 27.11.2028 -
Lionel Jara Central Córdoba SdE Aktiv 99 / 110 40% 5 27.11.2028 -
Jay Robinson Everton Aktiv 134 / 140 40% 1 27.11.2028 -
Lucca São Paulo Aktiv 123 / 113 40% 2 26.11.2028 -
Shea Lacey Crystal Palace Aktiv 136 / 152 40% 1 26.11.2028 -
André Miranda Porto Aktiv 125 / 129 40% 1 26.11.2028 -
Veljko Milosavljević Bournemouth Aktiv 152 / 141 40% 4 24.11.2028 -
Trey Nyoni Rotherham United Aktiv 145 / 155 40% 7 24.11.2028 -
Josh King Newcastle United Aktiv 148 / 163 40% 1 23.11.2028 -
Jack Shorrock Port Vale Aktiv 104 / 103 40% 1 23.11.2028 -
Bienvenue Kanakimana Zbrojovka Brno Aktiv 131 / 131 42% 1 / 1m 22.11.2028 -
Luis Otávio Orlando City Aktiv 116 / 119 40% 2 21.11.2028 -
Celías Ingenthron Platense Aktiv 118 / 120 40% 2 21.11.2028 -
Máximo Munarriz San Telmo Aktiv 103 / 109 40% 2 19.11.2028 -
Riquelme Thompson-Jones Accrington Stanley Aktiv 113 / 124 40% 1 19.11.2028 -
José Neto Benfica Aktiv 126 / 120 40% 1 19.11.2028 -
Lucas Jetten MC Alger Aktiv 127 / 124 40% 1 18.11.2028 -
Daniel Banjaqui Benfica Aktiv 129 / 122 40% 1 18.11.2028 -
Johan Solstad-Nøis Tromso Aktiv 94 / 109 40% 2 17.11.2028 -
Harrison Armstrong Ipswich Town Aktiv 142 / 138 40% 1 16.11.2028 -
Felipe Varela Trujillanos Aktiv 94 / 87 40% 1 16.11.2028 -
Nejc Brekalo NK Domzale Aktiv 107 / 113 40% 1 12.11.2028 -
Diego León Rotherham United Aktiv 124 / 131 40% 2 11.11.2028 -
Matías Arias Vélez Aktiv 117 / 130 40% 2 11.11.2028 -
Santiago Segovia Rosario Central Aktiv 110 / 124 40% 1 11.11.2028 -
Nejc Viher NK Maribor Aktiv 121 / 121 40% 1 11.11.2028 -
Tahiel Peralta Racing Club Aktiv 115 / 113 40% 2 07.11.2028 -
Nicolás Nagel Colón Aktiv 91 / 103 40% 3 07.11.2028 -
Isaque Obolon Aktiv 132 / 137 40% 1 07.11.2028 -
Fletcher Boyd Accrington Stanley Aktiv 106 / 117 40% 1 03.11.2028 -
Babis Kostoulas Oxford United Aktiv 152 / 139 40% 2 02.11.2028 -
Markus Wæhler Lillestrom Aktiv 108 / 108 40% 1 02.11.2028 -
Sean Steur Rotherham United Aktiv 130 / 134 40% 2 30.10.2028 -
Ibrahim Mbaye Queens Park Rangers Aktiv 142 / 141 40% 1 30.10.2028 -
Mateo Lizondo Colón Aktiv 95 / 112 40% 2 28.10.2028 -
Geovany Quenda Watford Aktiv 150 / 148 40% 1 23.10.2028 -
Gideon Manaseh Ikorodu City Aktiv 93 / 93 40% 2 21.10.2028 -
Christos Mouzakitis Hull City Aktiv 142 / 152 40% 5 19.10.2028 -
Valentino Huertas Morón Aktiv 102 / 108 40% 3 18.10.2028 -
Sayfiddin Sodikov Andijon Aktiv 93 / 106 40% 2 17.10.2028 -
Mikey Moore Stockport County Aktiv 138 / 157 40% 1 16.10.2028 -
Estêvão Portsmouth Aktiv 155 / 157 40% 1 15.10.2028 -
Rio Ngumoha Plymouth Argyle Aktiv 142 / 143 40% 1 14.10.2028 -
Romelle Donovan Brentford Aktiv 133 / 140 40% 1 12.10.2028 -
Dieguinho Grêmio Aktiv 114 / 128 40% 1 12.10.2028 -
Timofey Simanenka Gomel Aktiv 98 / 96 40% 1 08.10.2028 -
Henrique Carmo Sochi Aktiv 133 / 147 40% 1 07.10.2028 -
Álvaro Montoro Botafogo Aktiv 136 / 143 40% 2 06.10.2028 -
Felipe Pujol Vélez Aktiv 112 / 121 40% 1 03.10.2028 -
Felipe Obradovich Ferro Carril Oeste Aktiv 109 / 101 40% 1 03.10.2028 -
Ayyoub Bouaddi Stoke City Aktiv 154 / 161 40% 2 08.09.2028 -
Ayden Heaven Portsmouth Aktiv 153 / 154 40% 2 06.09.2028 -
Ronan Kpakio AC Milan Aktiv 131 / 136 40% 1 06.09.2028 -
Lautaro Dufur Juventud Aktiv 104 / 115 40% 1 04.09.2028 -
Muminhon Bahodirxonov Neftchi Aktiv 95 / 101 40% 1 04.09.2028 -
Thijs Kraaijeveld USM Alger Aktiv 126 / 122 40% 2 28.08.2028 -
Matej Malenšek Pribram Aktiv 126 / 129 42% 1 / 1m 23.08.2028 -
Roberto Medina La Equidad Aktiv 90 / 94 40% 1 14.08.2028 -
Augusto Bando Ascoli Aktiv 110 / 114 40% 1 14.08.2028 -
Luis Otávio Orlando City Verloren 119 / 134 40% 1 14.08.2028 -
Jan Suchan Jablonec Bericht bereit 112 / 123 86% 1 31.07.2028 -
Patrick Kpozo Banik Ostrava Bericht bereit 113 / 120 86% 1 10.07.2028 -
Filip Kubala Banik Ostrava Bericht bereit 130 / 129 86% 1 03.07.2028 -
Fabijan Krivak Sigma Olomouc Bericht bereit 123 / 121 86% 1 19.06.2028 -
Amin Nabizada Exeter City Aktiv 113 / 114 40% 1 19.06.2028 -
Dominik Pleštil Bohemians 1905 Aktiv 118 / 112 86% 1 04.06.2028 Befürworten
Konta Ismaily Aktiv 95 / 111 40% 1 01.06.2028 -
Alexandr Sojka Viktoria Plzen Aktiv 124 / 118 86% 1 01.01.2028 Befürworten
Enzo López AEL Aktiv 115 / 115 30% 1 / 1m 17.11.2027 -
Jan Hanuš Jablonec Aktiv 124 / 124 42% 1 / 1m 17.02.2027 -